Time;durP1;ratioP1;P1;durP2;ratioP2;P2;SDS_P1;SDS_P2;PMS_P1;PMS_P2;Temp;Humidity;BMP_temperature;BMP_pressure;BME280_temperature;BME280_humidity;BME280_pressure;Samples;Min_cycle;Max_cycle;Signal;HPM_P1;HPM_P2
2022/07/14 00:00:58;;;;;;;1.40;1.30;;;24.60;30.00;;;24.75;28.26;97916.53;5028470;28;20378;-49
2022/07/14 00:03:25;;;;;;;1.33;1.23;;;24.50;30.00;;;24.76;28.19;97912.78;5028847;28;20079;-53
2022/07/14 00:05:53;;;;;;;1.73;1.50;;;24.50;30.00;;;24.77;28.16;97906.22;5028171;28;20057;-50
2022/07/14 00:08:21;;;;;;;2.20;1.30;;;24.60;30.00;;;24.75;28.46;97899.41;5025772;28;20042;-51
2022/07/14 00:10:49;;;;;;;1.30;1.20;;;24.50;30.20;;;24.69;28.40;97895.75;5028324;28;20067;-52
2022/07/14 00:13:17;;;;;;;3.15;1.50;;;24.40;30.30;;;24.63;28.95;97898.66;5025637;28;20344;-49
2022/07/14 00:15:46;;;;;;;1.60;1.50;;;24.40;30.80;;;24.44;28.93;97911.63;5026730;28;20041;-49
2022/07/14 00:18:14;;;;;;;1.85;1.58;;;24.10;31.30;;;24.43;29.00;97912.66;5027476;28;20079;-48
2022/07/14 00:20:42;;;;;;;3.85;1.80;;;24.00;31.30;;;24.34;29.15;97907.63;5026973;28;20064;-48
2022/07/14 00:23:10;;;;;;;3.20;1.35;;;24.00;31.40;;;24.29;29.33;97902.13;5027165;28;20065;-51
2022/07/14 00:25:38;;;;;;;1.35;1.30;;;23.90;31.70;;;24.25;29.52;97900.09;5027763;28;20045;-50
2022/07/14 00:28:05;;;;;;;2.08;1.42;;;23.90;32.00;;;24.23;29.63;97908.50;5026928;28;20067;-49
2022/07/14 00:30:33;;;;;;;2.85;1.50;;;23.90;32.10;;;24.20;30.07;97906.28;5026825;28;20067;-50
2022/07/14 00:33:02;;;;;;;1.40;1.25;;;23.80;32.20;;;24.14;30.01;97897.19;5026989;28;20053;-51
2022/07/14 00:35:31;;;;;;;3.38;1.98;;;23.70;32.60;;;24.08;30.27;97897.31;5027226;28;20045;-53
2022/07/14 00:37:59;;;;;;;1.60;1.50;;;23.60;33.00;;;23.98;30.75;97901.53;5024797;28;20060;-51
2022/07/14 00:40:27;;;;;;;1.73;1.30;;;23.60;33.60;;;23.95;30.89;97902.00;5027124;28;20407;-52
2022/07/14 00:42:55;;;;;;;3.22;1.50;;;23.60;33.70;;;23.91;30.87;97905.44;5027265;28;20356;-52
2022/07/14 00:45:26;;;;;;;2.42;1.25;;;23.50;33.80;;;23.85;31.11;97900.97;5026541;28;20049;-51
2022/07/14 00:47:54;;;;;;;1.38;1.27;;;23.40;34.40;;;23.78;31.36;97895.66;5026284;28;20050;-50
2022/07/14 00:50:22;;;;;;;2.33;1.38;;;23.30;34.60;;;23.69;31.45;97895.19;5024456;28;20057;-54
2022/07/14 00:52:50;;;;;;;1.50;1.40;;;23.30;34.90;;;23.64;31.43;97896.97;5027243;28;20053;-49
2022/07/14 00:55:19;;;;;;;1.83;1.40;;;23.10;34.80;;;23.58;31.49;97896.03;5025862;28;20229;-50
2022/07/14 00:57:47;;;;;;;1.80;1.38;;;23.10;34.90;;;23.55;31.85;97893.78;5026270;28;20053;-55
2022/07/14 01:00:16;;;;;;;1.50;1.40;;;23.10;34.90;;;23.50;31.92;97891.78;5024791;28;20225;-51
2022/07/14 01:02:46;;;;;;;3.63;2.13;;;23.00;35.10;;;23.42;32.11;97894.88;5024728;28;20053;-55
2022/07/14 01:05:14;;;;;;;1.58;1.38;;;22.90;35.50;;;23.36;32.21;97893.09;5026985;28;20298;-54
2022/07/14 01:07:43;;;;;;;2.95;1.50;;;22.90;35.60;;;23.31;32.41;97896.53;5040636;28;20057;-51
2022/07/14 01:10:11;;;;;;;1.50;1.40;;;22.90;35.90;;;23.27;32.37;97899.97;5042001;28;20064;-54
2022/07/14 01:12:45;;;;;;;2.78;1.40;;;22.80;36.10;;;23.20;32.77;97905.50;5027250;28;20053;-53
2022/07/14 01:15:17;;;;;;;1.70;1.40;;;22.70;36.30;;;23.14;32.73;97901.03;5026578;28;20366;-54
2022/07/14 01:17:47;;;;;;;1.85;1.42;;;22.60;36.50;;;23.07;33.23;97901.16;5026996;28;20057;-51
2022/07/14 01:20:16;;;;;;;2.88;1.30;;;22.60;36.80;;;23.00;33.19;97906.63;5027170;28;20665;-50
2022/07/14 01:22:46;;;;;;;1.92;1.40;;;22.50;37.20;;;22.92;33.37;97900.75;5024944;28;20085;-54
2022/07/14 01:25:17;;;;;;;1.40;1.30;;;22.40;37.40;;;22.89;33.70;97907.44;5025674;28;20351;-50
2022/07/14 01:27:46;;;;;;;1.95;1.50;;;22.40;37.60;;;22.85;33.85;97898.13;5009486;28;20149;-51
2022/07/14 01:30:14;;;;;;;2.08;1.63;;;22.40;37.70;;;22.76;34.14;97894.94;5024346;28;20071;-50
2022/07/14 01:32:42;;;;;;;2.33;1.70;;;22.30;37.90;;;22.71;34.35;97897.53;5025474;28;20249;-54
2022/07/14 01:35:10;;;;;;;1.55;1.40;;;22.20;38.00;;;22.64;34.06;97893.25;5026945;28;20057;-51
2022/07/14 01:37:38;;;;;;;2.78;1.50;;;22.20;38.20;;;22.57;34.04;97893.38;5026849;28;20049;-53
2022/07/14 01:40:09;;;;;;;8.15;1.88;;;22.10;38.20;;;22.54;34.44;97891.13;5024224;28;20057;-52
2022/07/14 01:42:37;;;;;;;2.00;1.70;;;22.00;38.00;;;22.49;34.43;97890.97;5008954;28;20232;-50
2022/07/14 01:45:06;;;;;;;1.67;1.38;;;22.00;38.00;;;22.41;34.32;97887.56;5024169;28;20056;-49
2022/07/14 01:47:34;;;;;;;1.50;1.40;;;21.90;38.00;;;22.39;34.58;97886.09;5025489;28;20058;-53
2022/07/14 01:50:02;;;;;;;2.95;1.50;;;21.90;38.00;;;22.37;34.33;97882.81;5024916;28;20053;-51
2022/07/14 01:52:34;;;;;;;1.50;1.40;;;21.90;37.80;;;22.35;33.88;97880.34;5009502;28;20053;-54
2022/07/14 01:55:02;;;;;;;3.40;1.38;;;21.90;37.70;;;22.29;34.07;97878.53;5027169;28;20247;-53
2022/07/14 01:57:30;;;;;;;3.28;1.55;;;21.80;37.70;;;22.21;34.47;97876.13;5024259;28;20053;-50
2022/07/14 01:59:58;;;;;;;2.65;1.60;;;21.70;38.00;;;22.13;34.55;97882.69;5024187;28;20061;-52
2022/07/14 02:02:26;;;;;;;1.70;1.60;;;21.60;38.30;;;22.12;34.70;97888.34;5025892;28;20060;-52
2022/07/14 02:04:54;;;;;;;2.10;1.45;;;21.60;38.20;;;22.12;34.13;97886.47;5025141;28;20061;-50
2022/07/14 02:07:23;;;;;;;3.70;1.50;;;21.70;38.10;;;22.09;34.23;97886.09;5024880;28;20064;-49
2022/07/14 02:12:52;;;;;;;2.08;1.50;;;21.60;38.10;;;21.98;34.56;97876.84;5026202;28;20050;-49
2022/07/14 02:15:20;;;;;;;2.28;1.48;;;21.50;38.20;;;21.98;34.86;97880.41;5028047;28;20061;-52
2022/07/14 02:17:50;;;;;;;1.90;1.60;;;21.50;38.20;;;21.98;34.60;97871.44;5027037;28;20067;-55
2022/07/14 02:20:19;;;;;;;2.10;1.27;;;21.50;38.20;;;21.95;34.76;97867.31;5028080;28;20057;-51
2022/07/14 02:22:48;;;;;;;1.92;1.30;;;21.50;38.30;;;21.90;34.53;97869.88;5028413;28;20055;-54
2022/07/14 02:25:16;;;;;;;2.10;1.50;;;21.50;38.50;;;21.89;35.05;97861.97;5028817;28;20049;-51
2022/07/14 02:27:44;;;;;;;2.38;1.95;;;21.40;38.60;;;21.88;34.86;97857.59;5027371;28;20063;-53
2022/07/14 02:30:12;;;;;;;3.45;1.75;;;21.40;38.60;;;21.83;34.84;97861.00;5029139;28;20045;-51
2022/07/14 02:32:40;;;;;;;1.58;1.48;;;21.40;38.80;;;21.80;35.33;97856.84;5029495;28;20053;-52
2022/07/14 02:35:09;;;;;;;2.70;1.45;;;21.40;38.90;;;21.78;35.32;97863.56;5030385;28;20041;-50
2022/07/14 02:37:37;;;;;;;1.65;1.38;;;21.30;38.90;;;21.76;35.04;97855.66;5027539;28;20053;-51
2022/07/14 02:40:05;;;;;;;3.42;1.48;;;21.30;38.70;;;21.77;35.27;97865.47;5028025;28;20380;-48
2022/07/14 02:42:34;;;;;;;2.30;1.40;;;21.40;38.80;;;21.76;34.84;97866.50;5044335;28;20055;-50
2022/07/14 02:45:02;;;;;;;2.28;1.30;;;21.30;38.80;;;21.76;35.06;97865.69;5011288;28;20275;-53
2022/07/14 02:47:30;;;;;;;1.60;1.50;;;21.30;38.50;;;21.70;35.06;97858.47;5027044;28;20061;-51
2022/07/14 02:49:58;;;;;;;3.13;1.25;;;21.30;38.60;;;21.64;35.18;97849.38;5029150;28;20042;-54
2022/07/14 02:52:26;;;;;;;1.55;1.40;;;21.20;38.60;;;21.61;35.25;97852.53;5027727;28;20108;-51
2022/07/14 02:54:55;;;;;;;1.73;1.33;;;21.10;38.70;;;21.55;35.24;97851.53;5028126;28;20050;-51
2022/07/14 02:57:27;;;;;;;2.10;1.55;;;21.10;39.10;;;21.54;35.38;97855.31;5044093;28;20304;-51
2022/07/14 02:59:56;;;;;;;1.88;1.17;;;21.10;39.30;;;21.51;35.31;97847.63;5043852;28;20063;-50
2022/07/14 03:02:25;;;;;;;1.50;1.40;;;21.00;39.20;;;21.49;35.06;97841.63;5027951;28;20355;-50
2022/07/14 03:04:53;;;;;;;2.10;1.85;;;21.00;38.90;;;21.47;35.18;97835.59;5027551;28;20258;-50
2022/07/14 03:07:21;;;;;;;1.77;1.38;;;21.10;38.80;;;21.51;35.24;97850.34;5027115;28;20053;-52
2022/07/14 03:09:49;;;;;;;2.17;1.50;;;21.10;38.70;;;21.53;34.87;97844.69;5043524;28;20049;-50
2022/07/14 03:12:18;;;;;;;3.35;1.55;;;21.10;38.50;;;21.57;35.20;97843.19;5027084;28;20504;-53
2022/07/14 03:14:46;;;;;;;1.60;1.50;;;21.20;38.30;;;21.55;35.00;97840.72;5027819;28;20063;-54
2022/07/14 03:17:14;;;;;;;1.65;1.50;;;21.20;38.40;;;21.54;35.13;97839.06;5026890;28;20058;-52
2022/07/14 03:19:43;;;;;;;2.67;1.48;;;21.20;38.60;;;21.51;35.38;97847.63;5027625;28;20290;-53
2022/07/14 03:22:11;;;;;;;1.48;1.38;;;21.20;38.50;;;21.50;35.43;97834.31;5027782;28;20225;-51
2022/07/14 03:24:39;;;;;;;2.88;2.08;;;21.10;38.60;;;21.51;35.36;97844.09;5026677;28;20255;-50
2022/07/14 03:27:08;;;;;;;2.95;1.42;;;21.20;38.70;;;21.50;35.51;97837.03;5026379;28;20059;-54
2022/07/14 03:29:40;;;;;;;2.40;1.38;;;21.20;39.00;;;21.49;35.42;97833.50;5043120;28;20247;-51
2022/07/14 03:32:09;;;;;;;1.50;1.40;;;21.20;39.00;;;21.51;35.28;97838.69;5026334;28;20062;-52
2022/07/14 03:34:37;;;;;;;4.50;1.50;;;21.20;38.70;;;21.54;35.33;97840.94;5028588;28;20428;-52
2022/07/14 03:37:05;;;;;;;3.83;2.33;;;21.20;38.60;;;21.57;35.36;97837.78;5026774;28;20446;-49
2022/07/14 03:39:46;;;;;;;2.17;1.98;;;21.30;38.60;;;21.60;35.28;97842.75;5025885;28;20067;-54
2022/07/14 03:42:14;;;;;;;1.92;1.38;;;21.40;38.70;;;21.59;35.57;97850.03;5026188;28;20066;-52
2022/07/14 03:44:43;;;;;;;3.50;1.60;;;21.30;39.10;;;21.59;35.66;97847.31;5042866;28;20260;-53
2022/07/14 03:47:12;;;;;;;1.63;1.40;;;21.30;39.20;;;21.62;36.04;97854.19;5042911;28;20063;-53
2022/07/14 03:49:42;;;;;;;2.90;1.30;;;21.30;39.30;;;21.61;36.09;97852.53;5026030;28;20041;-53
2022/07/14 03:52:16;;;;;;;1.52;1.42;;;21.30;39.50;;;21.56;36.38;97853.22;5027190;28;20053;-47
2022/07/14 03:54:46;;;;;;;1.55;1.40;;;21.20;39.80;;;21.57;35.89;97854.03;5042716;28;20282;-52
2022/07/14 03:57:16;;;;;;;2.60;1.60;;;21.20;40.20;;;21.60;35.70;97857.13;5025827;28;20347;-55
2022/07/14 03:59:46;;;;;;;2.13;1.58;;;21.30;39.10;;;21.65;36.09;97856.44;5026660;28;20061;-54
2022/07/14 04:02:16;;;;;;;1.92;1.70;;;21.30;39.80;;;21.68;36.35;97864.09;5026155;28;20263;-52
2022/07/14 04:04:45;;;;;;;1.75;1.30;;;21.40;39.70;;;21.66;36.11;97868.09;5026635;28;20071;-51
2022/07/14 04:07:13;;;;;;;2.03;1.40;;;21.30;39.50;;;21.63;35.97;97866.66;5043296;28;20344;-53
2022/07/14 04:09:42;;;;;;;1.67;1.42;;;21.30;39.50;;;21.61;36.05;97864.16;5041941;28;20220;-49
2022/07/14 04:12:09;;;;;;;1.95;1.50;;;21.30;39.80;;;21.61;36.07;97861.47;5042288;28;20061;-50
2022/07/14 04:14:37;;;;;;;2.65;1.52;;;21.30;39.80;;;21.60;36.02;97862.53;5027924;28;20055;-48
2022/07/14 04:17:05;;;;;;;3.72;1.80;;;21.30;39.90;;;21.61;36.27;97861.47;5027193;28;20057;-52
2022/07/14 04:19:34;;;;;;;1.83;1.60;;;21.30;40.00;;;21.65;36.06;97869.16;5025034;28;20057;-53
2022/07/14 04:22:02;;;;;;;4.57;1.58;;;21.40;39.30;;;21.67;35.51;97864.34;5026900;28;20319;-52
2022/07/14 04:24:50;;;;;;;2.70;1.88;;;21.50;38.70;;;21.79;35.19;97870.63;5025834;28;20069;-50
2022/07/14 04:27:19;;;;;;;1.77;1.58;;;21.70;38.30;;;21.89;35.25;97873.66;5009288;28;20065;-50
2022/07/14 04:29:47;;;;;;;3.20;1.88;;;21.80;38.10;;;21.93;35.02;97874.84;5025309;28;20539;-55
2022/07/14 04:32:15;;;;;;;2.25;1.90;;;21.90;38.00;;;21.96;35.44;97871.66;5025699;28;20045;-53
2022/07/14 04:34:44;;;;;;;2.17;1.58;;;21.80;38.00;;;22.01;35.45;97863.66;5027555;28;20060;-53
2022/07/14 04:37:12;;;;;;;1.95;1.50;;;21.90;38.00;;;22.06;35.39;97864.88;5026507;28;20120;-52
2022/07/14 04:39:41;;;;;;;2.40;1.77;;;22.00;38.00;;;22.11;35.42;97865.84;5026077;28;20057;-51
2022/07/14 04:42:09;;;;;;;2.83;1.42;;;22.00;38.00;;;22.15;35.26;97871.63;5025507;28;20061;-51
2022/07/14 04:44:41;;;;;;;2.35;1.83;;;22.00;38.40;;;22.13;35.30;97863.72;5009897;28;20057;-54
2022/07/14 04:47:09;;;;;;;5.35;1.83;;;22.00;38.80;;;22.12;35.92;97866.66;5025485;28;20250;-52
2022/07/14 04:52:30;;;;;;;4.53;3.30;;;21.90;39.80;;;22.11;35.69;97865.84;5026801;28;20046;-54
2022/07/14 04:55:26;;;;;;;3.38;1.60;;;21.90;39.20;;;22.11;36.38;97873.97;5025317;28;20255;-51
2022/07/14 04:58:04;;;;;;;2.72;1.70;;;21.90;39.60;;;22.14;36.67;97876.22;5025653;28;20054;-53
2022/07/14 05:00:32;;;;;;;4.20;2.20;;;22.00;40.00;;;22.16;36.54;97876.81;5025777;28;20057;-49
2022/07/14 05:03:00;;;;;;;3.55;1.92;;;22.00;40.00;;;22.21;36.53;97871.53;5024381;28;20399;-48
2022/07/14 05:05:28;;;;;;;3.28;1.67;;;22.00;40.10;;;22.25;36.95;97871.91;5027696;28;20057;-49
2022/07/14 05:07:56;;;;;;;4.85;2.10;;;22.10;40.20;;;22.29;36.60;97875.81;5026204;28;20067;-54
2022/07/14 05:10:33;;;;;;;2.42;2.00;;;22.20;39.70;;;22.32;36.65;97872.66;5025710;28;20053;-52
2022/07/14 05:13:00;;;;;;;3.90;1.98;;;22.20;39.70;;;22.33;36.91;97877.03;5026798;28;20322;-50
2022/07/14 05:15:28;;;;;;;4.20;1.77;;;22.20;39.80;;;22.32;37.00;97867.25;5026934;28;20055;-52
2022/07/14 05:17:57;;;;;;;1.90;1.70;;;22.20;40.00;;;22.34;36.53;97859.69;5024929;28;20045;-51
2022/07/14 05:20:25;;;;;;;2.70;1.77;;;22.20;39.80;;;22.36;36.61;97863.00;5024901;28;20071;-51
2022/07/14 05:22:53;;;;;;;3.50;2.10;;;22.30;40.30;;;22.40;36.50;97866.06;5024642;28;20397;-51
2022/07/14 05:25:21;;;;;;;3.13;2.30;;;22.30;39.90;;;22.43;36.78;97865.63;5025563;28;20569;-51
2022/07/14 05:27:49;;;;;;;3.30;1.65;;;22.40;39.90;;;22.47;37.54;97865.97;5042386;28;20061;-53
2022/07/14 05:30:29;;;;;;;4.90;2.00;;;22.40;41.00;;;22.50;38.47;97868.22;5040254;28;20256;-52
2022/07/14 05:32:57;;;;;;;4.25;1.88;;;22.40;42.30;;;22.51;38.54;97859.03;5024751;28;20049;-51
2022/07/14 05:35:27;;;;;;;2.47;2.00;;;22.40;42.80;;;22.52;38.72;97855.25;5041896;28;20050;-53
2022/07/14 05:37:58;;;;;;;3.25;1.88;;;22.40;42.90;;;22.54;38.77;97855.84;5024839;28;20083;-54
2022/07/14 05:40:53;;;;;;;12.40;3.28;;;22.50;43.30;;;22.54;39.09;97845.81;5024442;28;20275;-49
2022/07/14 05:43:21;;;;;;;8.05;3.45;;;22.50;45.00;;;22.59;39.50;97850.56;5025478;28;20057;-53
2022/07/14 05:46:04;;;;;;;7.65;2.60;;;22.50;43.70;;;22.59;39.68;97847.84;5040375;28;20049;-53
2022/07/14 05:48:33;;;;;;;3.58;2.20;;;22.50;45.20;;;22.60;39.36;97853.03;5026251;28;20053;-54
2022/07/14 05:51:07;;;;;;;6.90;1.80;;;22.50;44.00;;;22.66;38.97;97845.00;5044586;28;20052;-54
2022/07/14 05:53:38;;;;;;;4.50;1.67;;;22.60;43.20;;;22.74;38.94;97845.50;5028016;28;20045;-52
2022/07/14 05:56:12;;;;;;;2.90;1.80;;;22.70;42.80;;;22.85;38.43;97857.41;5013387;28;20045;-54
2022/07/14 05:58:41;;;;;;;2.13;1.55;;;22.90;42.30;;;22.94;38.44;97847.88;5013032;28;20240;-51
2022/07/14 06:01:09;;;;;;;4.63;2.10;;;23.00;41.80;;;23.03;37.89;97847.53;5044583;28;20056;-53
2022/07/14 06:03:37;;;;;;;2.40;1.70;;;23.10;40.90;;;23.13;37.51;97848.59;5029901;28;20614;-51
2022/07/14 06:06:08;;;;;;;2.75;2.08;;;23.20;40.20;;;23.21;36.48;97844.69;5029798;28;20056;-51
2022/07/14 06:08:37;;;;;;;1.60;1.50;;;23.40;39.00;;;23.30;36.11;97845.16;5028166;28;20084;-53
2022/07/14 06:11:07;;;;;;;2.30;2.00;;;23.50;38.90;;;23.37;35.92;97846.69;5044864;28;20299;-49
2022/07/14 06:13:35;;;;;;;2.53;1.85;;;23.60;38.20;;;23.47;35.37;97848.78;5029746;28;20057;-51
2022/07/14 06:16:04;;;;;;;2.38;1.40;;;23.70;37.90;;;23.54;35.33;97841.34;5045979;28;20076;-56
2022/07/14 06:18:31;;;;;;;2.30;1.98;;;23.70;37.60;;;23.59;35.24;97841.44;5028922;28;20054;-55
2022/07/14 06:21:00;;;;;;;5.25;2.10;;;23.80;37.40;;;23.68;36.33;97847.31;5044785;28;20080;-55
2022/07/14 06:23:28;;;;;;;4.22;2.03;;;23.90;39.10;;;23.75;36.28;97831.72;5028232;28;20067;-53
2022/07/14 06:25:56;;;;;;;5.88;2.50;;;23.90;38.90;;;23.83;37.93;97840.59;5028717;28;20240;-52
2022/07/14 06:28:32;;;;;;;9.52;3.35;;;24.00;41.00;;;23.89;38.00;97837.72;5045092;28;20449;-53
2022/07/14 06:31:00;;;;;;;5.32;2.25;;;24.10;41.20;;;23.96;37.89;97834.84;5044506;28;20060;-55
2022/07/14 06:33:29;;;;;;;3.35;2.00;;;24.20;40.90;;;24.02;36.75;97831.16;5044191;28;20051;-54
2022/07/14 06:36:04;;;;;;;3.25;2.00;;;24.20;39.70;;;24.10;36.17;97832.69;5029397;28;20283;-54
2022/07/14 06:38:35;;;;;;;3.45;1.83;;;24.30;38.70;;;24.16;35.82;97835.22;5024612;28;20057;-56
2022/07/14 06:41:07;;;;;;;3.38;1.70;;;24.40;38.30;;;24.21;35.40;97829.03;5027505;28;20061;-55
2022/07/14 06:43:41;;;;;;;3.90;1.65;;;24.40;37.60;;;24.25;35.33;97822.03;5044503;28;20256;-49
2022/07/14 06:46:15;;;;;;;2.00;1.80;;;24.40;37.70;;;24.30;35.04;97827.59;5045345;28;20056;-54
2022/07/14 06:48:43;;;;;;;2.95;1.80;;;24.50;37.60;;;24.35;35.01;97830.41;5027881;28;20507;-52
2022/07/14 06:51:11;;;;;;;2.63;1.50;;;24.60;37.60;;;24.42;35.22;97823.97;5043694;28;20260;-54
2022/07/14 06:53:39;;;;;;;3.47;1.73;;;24.60;37.90;;;24.47;34.84;97827.59;5028122;28;20055;-52
2022/07/14 06:56:07;;;;;;;1.60;1.50;;;24.70;37.10;;;24.53;34.50;97823.09;5029661;28;20071;-52
2022/07/14 06:58:35;;;;;;;2.30;2.10;;;24.70;36.70;;;24.57;34.13;97816.09;5028453;28;20068;-54
2022/07/14 07:01:03;;;;;;;5.70;1.92;;;24.80;36.40;;;24.65;34.24;97817.56;5028855;28;20057;-54
2022/07/14 07:03:32;;;;;;;5.30;2.13;;;24.90;36.60;;;24.74;34.48;97814.19;5028231;28;20340;-53
2022/07/14 07:08:46;;;;;;;4.60;2.00;;;25.10;37.00;;;24.95;34.25;97814.47;5029080;28;20056;-53
2022/07/14 07:11:15;;;;;;;3.65;1.83;;;25.30;36.80;;;25.06;34.23;97810.03;5027014;28;20366;-48
2022/07/14 07:13:43;;;;;;;5.50;1.95;;;25.40;36.20;;;25.14;34.06;97810.44;5027040;28;20354;-52
2022/07/14 07:16:11;;;;;;;4.20;1.70;;;25.50;36.20;;;25.24;34.53;97808.94;5027706;28;20516;-49
2022/07/14 07:18:39;;;;;;;3.70;2.17;;;25.50;36.50;;;25.31;34.03;97809.56;5027261;28;20053;-48
2022/07/14 07:21:10;;;;;;;3.72;2.30;;;25.60;36.00;;;25.39;34.20;97808.31;5028441;28;20059;-53
2022/07/14 07:23:41;;;;;;;7.40;1.98;;;25.70;36.20;;;25.42;33.64;97802.38;5026381;28;20348;-51
2022/07/14 07:26:09;;;;;;;3.08;1.85;;;25.70;35.40;;;25.46;33.68;97803.50;5028980;28;20041;-52
2022/07/14 07:28:37;;;;;;;2.85;2.00;;;25.70;35.70;;;25.51;33.95;97801.66;5028532;28;20279;-48
2022/07/14 07:31:05;;;;;;;3.17;1.90;;;25.80;35.70;;;25.58;33.81;97801.47;5026720;28;20049;-48
2022/07/14 07:33:34;;;;;;;4.47;2.72;;;25.80;35.30;;;25.68;33.42;97803.50;5028515;28;20065;-48
2022/07/14 07:36:03;;;;;;;2.35;1.92;;;25.90;35.10;;;25.77;33.24;97806.59;5029131;28;20300;-47
2022/07/14 07:38:30;;;;;;;3.83;1.80;;;26.10;35.40;;;25.86;32.60;97792.25;5027885;28;20045;-52
2022/07/14 07:41:01;;;;;;;3.97;2.20;;;26.20;34.10;;;25.97;32.10;97792.38;5028437;28;20057;-50
2022/07/14 07:43:29;;;;;;;3.70;1.60;;;26.40;33.80;;;26.06;32.14;97797.13;5027509;28;20057;-51
2022/07/14 07:45:57;;;;;;;1.80;1.60;;;26.50;33.20;;;26.16;30.47;97788.22;5028943;28;20355;-49
2022/07/14 07:48:25;;;;;;;4.05;1.75;;;26.60;31.50;;;26.22;30.38;97781.72;5027466;28;20053;-50
2022/07/14 07:50:55;;;;;;;3.65;1.90;;;26.60;31.50;;;26.30;30.21;97780.41;5028937;28;20236;-49
2022/07/14 07:53:23;;;;;;;4.10;1.80;;;26.70;30.60;;;26.41;29.71;97778.59;5027754;28;20052;-49
2022/07/14 07:56:00;;;;;;;2.75;1.85;;;26.90;30.40;;;26.53;30.10;97776.50;5028328;28;20056;-54
2022/07/14 07:58:27;;;;;;;2.60;1.90;;;27.10;30.80;;;26.63;30.43;97779.34;5028193;28;20072;-55
2022/07/14 08:00:56;;;;;;;2.63;2.08;;;27.40;30.90;;;26.76;29.29;97774.53;5034536;28;20287;-51
2022/07/14 08:03:24;;;;;;;3.05;1.90;;;27.50;30.00;;;26.86;29.09;97769.13;5035737;28;20087;-51
2022/07/14 08:05:52;;;;;;;3.50;2.20;;;27.60;29.80;;;26.94;29.47;97770.53;5036416;28;20367;-54
2022/07/14 08:08:39;;;;;;;2.90;2.03;;;27.50;30.00;;;26.92;29.73;97768.88;5029920;28;20389;-53
2022/07/14 08:11:07;;;;;;;4.25;1.60;;;27.40;29.90;;;26.91;29.77;97760.97;5037048;28;20048;-53
2022/07/14 08:13:36;;;;;;;4.45;1.70;;;27.30;30.50;;;26.95;29.59;97759.34;5034421;28;20073;-52
2022/07/14 08:16:05;;;;;;;3.67;2.30;;;27.40;31.20;;;26.98;29.39;97763.47;5037261;28;20053;-55
2022/07/14 08:18:33;;;;;;;3.55;1.67;;;27.40;30.10;;;26.94;29.02;97763.16;5031966;28;20053;-53
2022/07/14 08:21:01;;;;;;;1.77;1.60;;;27.50;29.80;;;26.98;28.59;97755.25;5026317;28;20172;-54
2022/07/14 08:23:28;;;;;;;2.65;1.98;;;27.50;29.20;;;27.02;28.86;97759.91;5026955;28;20045;-54
2022/07/14 08:25:57;;;;;;;2.95;2.03;;;27.60;30.00;;;27.10;29.50;97758.59;5027359;28;20053;-52
2022/07/14 08:28:25;;;;;;;1.90;1.55;;;27.60;30.10;;;27.15;28.35;97753.16;5027052;28;20362;-54
2022/07/14 08:30:53;;;;;;;3.53;1.70;;;27.60;28.80;;;27.16;27.87;97746.63;5027690;28;20037;-51
2022/07/14 08:33:20;;;;;;;5.32;1.85;;;27.60;29.10;;;27.18;28.36;97747.19;5026618;28;20045;-51
2022/07/14 08:35:48;;;;;;;4.18;1.77;;;27.50;29.40;;;27.20;28.44;97742.28;5026450;28;20051;-52
2022/07/14 08:38:16;;;;;;;2.60;1.88;;;27.60;29.40;;;27.24;27.29;97742.56;5027629;28;20340;-50
2022/07/14 08:40:44;;;;;;;2.40;1.85;;;27.60;28.70;;;27.22;27.19;97734.63;5027217;28;20053;-53
2022/07/14 08:43:14;;;;;;;1.65;1.55;;;27.60;28.10;;;27.28;26.81;97732.78;5026882;28;20264;-50
2022/07/14 08:45:43;;;;;;;2.90;2.08;;;27.60;28.40;;;27.33;28.42;97731.97;5025748;28;20045;-51
2022/07/14 08:48:11;;;;;;;2.65;2.08;;;27.80;29.40;;;27.38;28.49;97727.34;5026452;28;20053;-49
2022/07/14 08:50:40;;;;;;;5.07;2.40;;;27.90;29.20;;;27.44;28.16;97728.19;5026613;28;20366;-49
2022/07/14 08:53:12;;;;;;;2.25;2.03;;;28.00;29.30;;;27.51;28.00;97723.28;5027040;28;20351;-51
2022/07/14 08:55:40;;;;;;;3.60;2.15;;;28.00;29.40;;;27.55;27.65;97726.28;5026863;28;20279;-50
2022/07/14 08:58:08;;;;;;;3.80;2.10;;;28.10;29.10;;;27.61;27.73;97719.75;5025482;28;20053;-53
2022/07/14 09:00:36;;;;;;;2.72;2.13;;;28.00;29.20;;;27.60;26.73;97707.97;5026092;28;20054;-48
2022/07/14 09:03:05;;;;;;;2.70;2.00;;;28.00;28.10;;;27.61;27.04;97706.09;5027125;28;20056;-52
2022/07/14 09:05:53;;;;;;;1.73;1.63;;;28.00;28.20;;;27.65;25.51;97710.72;5026403;28;20050;-50
2022/07/14 09:08:26;;;;;;;2.13;1.92;;;28.00;27.20;;;27.67;25.56;97705.81;5025820;28;20052;-50
2022/07/14 09:10:54;;;;;;;2.22;1.85;;;28.00;27.30;;;27.76;24.99;97700.66;5025741;28;20042;-49
2022/07/14 09:13:33;;;;;;;3.05;1.88;;;28.40;26.30;;;27.86;23.92;97699.84;5027754;28;20059;-53
2022/07/14 09:16:14;;;;;;;3.13;1.67;;;28.50;25.40;;;27.93;24.46;97700.41;5026946;28;20051;-50
2022/07/14 09:18:43;;;;;;;2.30;2.10;;;28.50;25.30;;;27.99;23.31;97695.75;5024788;28;20057;-49
2022/07/14 09:21:20;;;;;;;1.70;1.60;;;28.50;24.90;;;28.04;23.03;97693.84;5025704;28;20390;-52
2022/07/14 09:23:48;;;;;;;3.08;2.22;;;28.80;24.60;;;28.17;23.11;97688.91;5025565;28;20057;-50
2022/07/14 09:26:19;;;;;;;3.92;1.60;;;28.90;24.90;;;28.25;23.64;97691.13;5024724;28;20045;-50
2022/07/14 09:28:49;;;;;;;2.45;1.80;;;28.90;25.00;;;28.27;23.23;97686.19;5027276;28;20055;-50
2022/07/14 09:31:29;;;;;;;2.10;1.70;;;28.90;24.70;;;28.39;22.75;97686.72;5027286;28;20046;-47
2022/07/14 09:34:06;;;;;;;1.98;1.77;;;29.10;24.70;;;28.52;22.97;97681.78;5026730;28;20049;-51
2022/07/14 09:36:37;;;;;;;2.30;1.92;;;29.40;24.60;;;28.59;23.11;97682.31;5026315;28;20056;-54
2022/07/14 09:39:12;;;;;;;7.47;2.35;;;29.30;24.80;;;28.59;23.18;97674.91;5023114;28;20045;-49
2022/07/14 09:41:53;;;;;;;2.92;2.00;;;29.10;25.00;;;28.61;23.18;97678.19;5026194;28;20068;-48
2022/07/14 09:44:22;;;;;;;3.05;2.00;;;29.10;25.20;;;28.72;22.33;97681.75;5026480;28;20055;-49
2022/07/14 09:46:54;;;;;;;4.05;1.92;;;29.60;24.00;;;28.84;21.94;97684.19;5024369;28;20064;-52
2022/07/14 09:49:28;;;;;;;5.30;2.00;;;29.60;23.80;;;28.89;22.18;97669.63;5026349;28;20064;-50
2022/07/14 09:52:07;;;;;;;4.28;2.00;;;29.60;23.90;;;29.02;22.25;97672.63;5024596;28;20046;-51
2022/07/14 09:54:48;;;;;;;2.53;2.10;;;29.90;23.80;;;29.14;22.19;97668.75;5025197;28;20049;-51
2022/07/14 09:57:26;;;;;;;2.55;1.85;;;29.90;24.10;;;29.20;21.31;97668.44;5026851;28;20060;-50
2022/07/14 09:59:58;;;;;;;3.00;1.95;;;30.10;23.30;;;29.27;21.71;97667.31;5025665;28;20049;-52
2022/07/14 10:02:29;;;;;;;2.23;1.97;;;30.10;23.80;;;29.35;21.73;97670.31;5024995;28;20068;-53
2022/07/14 10:05:09;;;;;;;4.85;2.25;;;30.20;23.70;;;29.48;22.38;97677.06;5026220;28;20053;-51
2022/07/14 10:07:48;;;;;;;1.90;1.75;;;30.30;24.40;;;29.55;22.42;97672.09;5026654;28;20046;-51
2022/07/14 10:10:23;;;;;;;3.50;2.10;;;30.40;24.10;;;29.61;22.55;97673.69;5024607;28;20344;-52
2022/07/14 10:12:53;;;;;;;3.97;2.33;;;30.30;24.60;;;29.62;22.33;97669.03;5025676;28;20055;-51
2022/07/14 10:15:23;;;;;;;6.63;2.70;;;30.40;24.20;;;29.67;22.83;97668.19;5024248;28;20048;-52
2022/07/14 10:17:51;;;;;;;3.15;2.45;;;30.40;24.80;;;29.73;22.16;97667.88;5025995;28;20060;-50
2022/07/14 10:20:20;;;;;;;2.67;1.70;;;30.50;24.00;;;29.80;22.34;97664.84;5023838;28;20056;-53
2022/07/14 10:22:48;;;;;;;3.47;2.00;;;30.50;24.40;;;29.78;22.61;97661.56;5025188;28;20065;-50
2022/07/14 10:25:17;;;;;;;5.18;2.40;;;30.50;24.60;;;29.82;22.36;97655.19;5025127;28;20052;-53
2022/07/14 10:27:46;;;;;;;2.78;2.45;;;30.60;24.40;;;29.92;22.47;97656.22;5026356;28;20055;-54
2022/07/14 10:30:15;;;;;;;5.57;3.15;;;30.60;24.50;;;29.96;22.56;97649.06;5024343;28;20273;-52
2022/07/14 10:32:49;;;;;;;2.45;2.08;;;30.70;24.40;;;30.04;22.75;97649.25;5025347;28;20045;-50
2022/07/14 10:35:47;;;;;;;2.92;2.10;;;30.80;24.60;;;30.07;22.49;97650.63;5029171;28;20368;-51
2022/07/14 10:38:37;;;;;;;5.63;3.33;;;30.90;24.30;;;30.18;22.57;97635.66;5029145;28;20419;-50
2022/07/14 10:41:19;;;;;;;3.08;2.63;;;31.00;24.70;;;30.32;22.77;97638.63;5028615;28;20049;-52